Camden, AL

5:52 AM CDT on July 30, 2016 (GMT -0500)
Buena Vista | | Change Station

Elev 272 ft 31.79 °N, 87.26 °W | Updated 10 minutes ago

Clear
Clear
72.1 °F
Feels Like 72.1 °F
N
0.0
Wind Variable Wind from SSW

Today
High -- | Low -- °F
--% Chance of Precip.
Yesterday
High -- | Low -- °F
Precip. -- in
Pressure 29.98 in
Visibility 10.0 miles
Clouds Clear
Dew Point 72 °F
Humidity 99%
Rainfall 0.00 in
Snow Depth Not available.
6:03 AM 7:47 PM
Waning Crescent, 14% visible
METAR KPRN 300956Z AUTO 22003KT 10SM CLR 24/22 A3000 RMK AO2 SLP151 T02390217
Pressure 29.98 in
Visibility 10.0 miles
Clouds Clear
Dew Point 72 °F
Humidity 99%
Rainfall 0.00 in
Snow Depth Not available.
6:03 AM 7:47 PM
Waning Crescent, 14% visible
METAR KPRN 300956Z AUTO 22003KT 10SM CLR 24/22 A3000 RMK AO2 SLP151 T02390217

10-Day Weather Forecast

Almanac

Astronomy

Jul. 30, 2016 Rise Set
Actual Time
Civil Twilight
Nautical Twilight
Astronomical Twilight
Moon
Length of Visible Light
Length of Day
Tomorrow will be .
, % of the Moon is Illuminated

Today's Extremes

State Highs State Lows

Community

WunderPhotos

Upload Photos

1,928,530 photos uploaded!

WunderBlog® & News

Nearby

Air Quality

  Air Quality AQ Index Pollutant
Not available.

Snow Depth

Station Depth Elevation

Earthquake Activity

City Distance Mag. Time & Date
Minimum magnitude displayed is 2.5.

Coastal Water Temperatures

Place Temperature

Stations

Nearby Weather Stations

Station Location Temp. Windchill Dew Point Humidity Wind Precip. Elev Updated Type
                   

Watches & Warnings

There are currently no watches in effect.